createdAt,value
2022-08-10T00:01:23.948Z,101233.23
2022-08-10T00:05:43.072Z,101228.52
2022-08-10T00:21:53.480Z,101223.02
2022-08-10T00:26:01.668Z,101220.66
2022-08-10T00:30:10.752Z,101220.08
2022-08-10T00:34:18.871Z,101223.69
2022-08-10T00:38:26.482Z,101226.61
2022-08-10T00:42:35.534Z,101226.84
2022-08-10T00:46:44.061Z,101221.27
2022-08-10T00:50:52.375Z,101218.23
2022-08-10T00:55:00.970Z,101224.51
2022-08-10T00:59:08.880Z,101224.25
2022-08-10T01:03:16.843Z,101223.35
2022-08-10T01:07:58.536Z,101218.32
2022-08-10T01:12:38.190Z,101222.08
2022-08-10T01:16:42.789Z,101228.52
2022-08-10T01:21:01.710Z,101227.52
2022-08-10T01:25:31.025Z,101231.08
2022-08-10T01:29:57.466Z,101230.23
2022-08-10T01:34:09.749Z,101228.69
2022-08-10T01:38:21.899Z,101229.30
2022-08-10T01:42:33.207Z,101222.61
2022-08-10T01:46:48.933Z,101228.72
2022-08-10T01:51:06.008Z,101230.22
2022-08-10T01:55:15.865Z,101226.65
2022-08-10T01:59:30.442Z,101229.64
2022-08-10T02:04:04.684Z,101227.88
2022-08-10T02:08:12.384Z,101222.42
2022-08-10T02:12:23.757Z,101221.64
2022-08-10T02:16:31.591Z,101218.11
2022-08-10T02:20:42.411Z,101222.30
2022-08-10T02:24:50.259Z,101229.12
2022-08-10T02:28:58.871Z,101232.64
2022-08-10T02:33:07.090Z,101228.57
2022-08-10T02:37:16.090Z,101226.31
2022-08-10T02:45:15.102Z,101228.09
2022-08-10T02:46:08.955Z,101228.33
2022-08-10T02:50:24.418Z,101228.08
2022-08-10T02:54:36.011Z,101227.05
2022-08-10T02:58:46.483Z,101232.31
2022-08-10T03:02:55.784Z,101229.60
2022-08-10T03:07:04.302Z,101233.55
2022-08-10T03:11:15.978Z,101232.96
2022-08-10T03:15:43.889Z,101231.65
2022-08-10T03:20:35.792Z,101227.99
2022-08-10T03:24:32.768Z,101232.92
2022-08-10T03:28:41.836Z,101232.80
2022-08-10T03:32:50.412Z,101235.17
2022-08-10T03:37:01.442Z,101237.05
2022-08-10T03:41:16.382Z,101242.80
2022-08-10T03:45:25.718Z,101248.51
2022-08-10T03:49:34.858Z,101250.24
2022-08-10T03:54:04.402Z,101252.92
2022-08-10T03:58:13.681Z,101254.15
2022-08-10T04:02:42.073Z,101256.13
2022-08-10T04:06:54.619Z,101254.55
2022-08-10T04:11:03.278Z,101258.05
2022-08-10T04:15:12.658Z,101257.52
2022-08-10T04:19:24.327Z,101257.61
2022-08-10T04:23:35.046Z,101258.02
2022-08-10T04:27:43.101Z,101260.55
2022-08-10T04:31:53.159Z,101260.40
2022-08-10T04:36:01.149Z,101264.90
2022-08-10T04:40:28.475Z,101271.41
2022-08-10T04:44:40.727Z,101276.04
2022-08-10T04:48:59.556Z,101277.55
2022-08-10T04:53:09.394Z,101281.74
2022-08-10T04:57:17.625Z,101284.92
2022-08-10T05:01:25.737Z,101285.59
2022-08-10T05:05:33.614Z,101296.66
2022-08-10T05:10:02.393Z,101294.79
2022-08-10T05:14:10.955Z,101301.06
2022-08-10T05:18:18.571Z,101304.67
2022-08-10T05:22:26.490Z,101302.79
2022-08-10T05:26:37.988Z,101298.63
2022-08-10T05:31:04.987Z,101290.78
2022-08-10T05:35:14.609Z,101293.52
2022-08-10T05:39:28.708Z,101294.68
2022-08-10T05:43:40.132Z,101295.04
2022-08-10T05:48:58.223Z,101299.05
2022-08-10T05:52:16.379Z,101299.60
2022-08-10T05:56:23.774Z,101304.90
2022-08-10T06:00:38.993Z,101298.71
2022-08-10T06:04:51.243Z,101299.50
2022-08-10T06:09:00.105Z,101297.27
2022-08-10T06:13:30.798Z,101299.70
2022-08-10T06:17:43.034Z,101296.61
2022-08-10T06:22:00.714Z,101300.77
2022-08-10T06:26:14.740Z,101302.55
2022-08-10T06:30:25.932Z,101304.08
2022-08-10T06:34:37.512Z,101304.73
2022-08-10T06:38:45.942Z,101307.39
2022-08-10T06:42:53.953Z,101304.34
2022-08-10T06:47:02.425Z,101307.99
2022-08-10T06:51:14.996Z,101306.79
2022-08-10T06:55:39.791Z,101305.45
2022-08-10T06:59:49.237Z,101303.98
2022-08-10T07:04:01.683Z,101302.21
2022-08-10T07:08:11.244Z,101302.19
2022-08-10T07:12:22.769Z,101304.07
2022-08-10T07:16:30.595Z,101298.08
2022-08-10T07:20:39.281Z,101300.02
2022-08-10T07:24:48.265Z,101296.55
2022-08-10T07:28:56.917Z,101295.69
2022-08-10T07:33:05.871Z,101293.13
2022-08-10T07:37:14.639Z,101295.05
2022-08-10T07:41:23.989Z,101298.16
2022-08-10T07:45:34.468Z,101298.16
2022-08-10T07:49:44.580Z,101297.33
2022-08-10T07:53:56.422Z,101294.05
2022-08-10T07:58:05.280Z,101294.83
2022-08-10T08:02:25.258Z,101293.03
2022-08-10T08:06:34.698Z,101292.78
2022-08-10T08:10:46.355Z,101295.09
2022-08-10T08:14:54.633Z,101297.55
2022-08-10T08:24:07.232Z,101297.02
2022-08-10T08:28:02.158Z,101292.53
2022-08-10T08:32:11.953Z,101286.65
2022-08-10T08:36:22.490Z,101289.33
2022-08-10T08:40:33.724Z,101290.09
2022-08-10T08:44:57.298Z,101290.30
2022-08-10T08:50:07.786Z,101288.45
2022-08-10T08:54:04.581Z,101283.72
2022-08-10T08:58:27.959Z,101283.73
2022-08-10T09:03:09.455Z,101282.14
2022-08-10T09:07:39.375Z,101280.37
2022-08-10T09:12:21.904Z,101278.31
2022-08-10T09:16:34.239Z,101272.25
2022-08-10T09:20:44.155Z,101267.14
2022-08-10T09:24:58.797Z,101263.17
2022-08-10T09:29:12.216Z,101264.15
2022-08-10T09:36:19.532Z,101267.44
2022-08-10T09:38:03.349Z,101270.91
2022-08-10T09:42:14.750Z,101266.83
2022-08-10T09:46:44.259Z,101269.35
2022-08-10T09:51:41.731Z,101267.77
2022-08-10T09:56:18.537Z,101264.48
2022-08-10T10:00:03.419Z,101258.45
2022-08-10T10:04:24.149Z,101251.27
2022-08-10T10:08:42.646Z,101254.38
2022-08-10T10:12:54.833Z,101248.14
2022-08-10T10:17:13.045Z,101246.09
2022-08-10T10:21:55.646Z,101242.56
2022-08-10T10:26:03.600Z,101240.67
2022-08-10T10:30:17.152Z,101234.73
2022-08-10T10:34:33.224Z,101229.58
2022-08-10T10:38:43.202Z,101221.48
2022-08-10T10:42:57.769Z,101219.08
2022-08-10T10:47:14.499Z,101215.38
2022-08-10T10:51:27.573Z,101218.25
2022-08-10T10:56:14.866Z,101213.52
2022-08-10T11:00:10.451Z,101212.07
2022-08-10T11:04:25.317Z,101211.67
2022-08-10T11:08:36.338Z,101200.73
2022-08-10T11:12:48.341Z,101200.12
2022-08-10T11:17:02.757Z,101199.06
2022-08-10T11:21:17.559Z,101195.67
2022-08-10T11:25:30.643Z,101199.77
2022-08-10T11:29:49.838Z,101193.83
2022-08-10T11:34:49.335Z,101195.97
2022-08-10T11:38:47.150Z,101196.13
2022-08-10T11:43:11.758Z,101191.59
2022-08-10T11:47:23.877Z,101181.71
2022-08-10T11:51:45.313Z,101174.13
2022-08-10T11:56:01.090Z,101170.58
2022-08-10T12:00:15.092Z,101168.39
2022-08-10T12:04:24.039Z,101167.32
2022-08-10T12:10:05.510Z,101164.05
2022-08-10T12:13:07.327Z,101159.98
2022-08-10T12:17:20.439Z,101159.35
2022-08-10T12:21:32.529Z,101162.54
2022-08-10T12:25:57.513Z,101165.26
2022-08-10T12:30:08.635Z,101161.17
2022-08-10T12:34:24.606Z,101148.60
2022-08-10T12:38:39.192Z,101139.86
2022-08-10T12:43:13.043Z,101134.76
2022-08-10T12:47:22.706Z,101138.45
2022-08-10T12:51:31.177Z,101134.88
2022-08-10T12:55:41.035Z,101130.42
2022-08-10T12:59:52.019Z,101128.16
2022-08-10T13:04:21.366Z,101119.20
2022-08-10T13:08:52.936Z,101115.08
2022-08-10T13:13:02.282Z,101112.60
2022-08-10T13:17:11.355Z,101111.38
2022-08-10T13:21:21.378Z,101108.88
2022-08-10T13:25:36.721Z,101103.48
2022-08-10T13:29:50.676Z,101099.05
2022-08-10T13:34:40.352Z,101093.98
2022-08-10T13:38:30.916Z,101092.65
2022-08-10T13:42:41.705Z,101083.71
2022-08-10T13:46:53.126Z,101082.91
2022-08-10T13:51:02.966Z,101078.48
2022-08-10T13:55:15.955Z,101085.09
2022-08-10T13:59:25.943Z,101085.89
2022-08-10T14:03:55.855Z,101077.42
2022-08-10T14:08:05.083Z,101072.36
2022-08-10T14:12:13.987Z,101066.77
2022-08-10T14:16:22.624Z,101063.88
2022-08-10T14:20:33.313Z,101063.89
2022-08-10T14:24:42.494Z,101058.14
2022-08-10T14:28:54.541Z,101061.10
2022-08-10T14:33:05.052Z,101059.67
2022-08-10T14:37:16.271Z,101066.45
2022-08-10T14:42:00.828Z,101063.42
2022-08-10T14:46:02.333Z,101066.25
2022-08-10T14:50:11.765Z,101066.49
2022-08-10T14:54:24.407Z,101058.67
2022-08-10T14:58:38.775Z,101060.84
2022-08-10T15:03:11.023Z,101059.11
2022-08-10T15:07:34.748Z,101052.17
2022-08-10T15:12:14.039Z,101055.16
2022-08-10T15:16:13.362Z,101047.67
2022-08-10T15:20:26.852Z,101043.58
2022-08-10T15:24:52.957Z,101041.33
2022-08-10T15:29:22.338Z,101044.77
2022-08-10T15:34:04.440Z,101038.11
2022-08-10T15:38:14.021Z,101030.21
2022-08-10T15:42:26.368Z,101027.11
2022-08-10T15:46:38.811Z,101030.13
2022-08-10T15:50:49.294Z,101035.20
2022-08-10T15:55:00.286Z,101034.39
2022-08-10T15:59:12.640Z,101032.31
2022-08-10T16:03:31.836Z,101033.40
2022-08-10T16:07:45.751Z,101031.34
2022-08-10T16:12:01.959Z,101033.42
2022-08-10T16:16:13.626Z,101028.12
2022-08-10T16:20:31.114Z,101022.86
2022-08-10T16:24:41.467Z,101018.98
2022-08-10T16:28:51.811Z,101016.23
2022-08-10T16:33:01.610Z,101013.67
2022-08-10T16:37:15.266Z,101008.04
2022-08-10T16:42:03.940Z,101008.64
2022-08-10T16:45:55.505Z,101000.77
2022-08-10T16:50:06.385Z,100998.08
2022-08-10T16:54:14.392Z,100996.46
2022-08-10T16:58:28.956Z,100996.12
2022-08-10T17:02:38.751Z,100995.75
2022-08-10T17:06:55.854Z,100994.61
2022-08-10T17:11:05.452Z,100996.13
2022-08-10T17:15:16.239Z,100992.23
2022-08-10T17:19:29.970Z,100994.39
2022-08-10T17:23:42.224Z,100995.13
2022-08-10T17:28:05.678Z,101002.33
2022-08-10T17:32:25.273Z,100998.27
2022-08-10T17:36:36.772Z,100998.50
2022-08-10T17:40:49.283Z,100994.84
2022-08-10T17:45:00.327Z,100993.46
2022-08-10T17:49:11.432Z,100992.77
2022-08-10T17:53:20.562Z,100990.11
2022-08-10T17:57:28.932Z,101000.48
2022-08-10T18:01:40.478Z,101004.80
2022-08-10T18:06:05.984Z,101008.88
2022-08-10T18:10:16.675Z,101007.52
2022-08-10T18:14:25.919Z,101011.23
2022-08-10T18:18:35.991Z,101016.07
2022-08-10T18:22:47.231Z,101014.04
2022-08-10T18:26:56.458Z,101017.10
2022-08-10T18:31:06.844Z,101019.50
2022-08-10T18:35:16.997Z,101025.91
2022-08-10T18:39:26.783Z,101029.81
2022-08-10T18:44:10.689Z,101031.16
2022-08-10T18:48:12.049Z,101028.15
2022-08-10T18:52:21.033Z,101028.73
2022-08-10T18:56:42.354Z,101030.33
2022-08-10T19:01:06.138Z,101030.08
2022-08-10T19:05:31.541Z,101026.61
2022-08-10T19:09:56.803Z,101027.09
2022-08-10T19:14:12.221Z,101032.44
2022-08-10T19:18:34.121Z,101034.80
2022-08-10T19:22:49.076Z,101034.11
2022-08-10T19:27:08.036Z,101035.84
2022-08-10T19:31:23.570Z,101042.27
2022-08-10T19:36:03.508Z,101044.79
2022-08-10T19:40:44.258Z,101042.98
2022-08-10T19:45:02.724Z,101042.40
2022-08-10T19:49:19.140Z,101036.20
2022-08-10T19:53:42.017Z,101035.38
2022-08-10T19:57:54.134Z,101034.69
2022-08-10T20:02:02.433Z,101033.48
2022-08-10T20:06:19.020Z,101032.65
2022-08-10T20:10:32.695Z,101031.02
2022-08-10T20:14:48.817Z,101034.62
2022-08-10T20:18:58.858Z,101039.68
2022-08-10T20:23:13.023Z,101038.06
2022-08-10T20:27:36.718Z,101045.81
2022-08-10T20:32:02.623Z,101045.73
2022-08-10T20:36:19.519Z,101046.20
2022-08-10T20:40:34.682Z,101044.23
2022-08-10T20:44:55.196Z,101045.44
2022-08-10T20:49:16.550Z,101040.33
2022-08-10T20:53:27.208Z,101037.80
2022-08-10T20:58:04.513Z,101043.88
2022-08-10T21:02:28.309Z,101042.89
2022-08-10T21:06:58.834Z,101043.70
2022-08-10T21:11:12.487Z,101045.64
2022-08-10T21:15:42.012Z,101046.78
2022-08-10T21:20:02.756Z,101043.96
2022-08-10T21:24:12.935Z,101043.39
2022-08-10T21:28:50.054Z,101039.05
2022-08-10T21:32:59.702Z,101037.11
2022-08-10T21:37:12.654Z,101037.77
2022-08-10T21:41:56.981Z,101034.23
2022-08-10T21:46:32.157Z,101040.56
2022-08-10T21:55:57.703Z,101042.36
2022-08-10T22:00:29.551Z,101043.70
2022-08-10T22:04:55.277Z,101046.71
2022-08-10T22:09:23.584Z,101048.88
2022-08-10T22:13:49.608Z,101047.44
2022-08-10T22:18:14.770Z,101049.65
2022-08-10T22:23:18.794Z,101047.64
2022-08-10T22:27:50.948Z,101040.79
2022-08-10T22:31:25.377Z,101043.36
2022-08-10T22:32:21.284Z,101045.94
2022-08-10T22:36:56.971Z,101050.00
2022-08-10T22:41:31.632Z,101048.01
2022-08-10T22:46:01.648Z,101046.35
2022-08-10T22:50:10.236Z,101049.07
2022-08-10T22:54:45.082Z,101046.84
2022-08-10T22:58:52.518Z,101044.58
2022-08-10T23:03:04.127Z,101044.52
2022-08-10T23:07:21.497Z,101042.33
2022-08-10T23:11:31.571Z,101037.54
2022-08-10T23:16:00.225Z,101031.34
2022-08-10T23:20:11.016Z,101034.78
2022-08-10T23:24:25.679Z,101037.19
2022-08-10T23:28:39.343Z,101042.94
2022-08-10T23:33:06.008Z,101041.17
2022-08-10T23:37:14.357Z,101044.27
2022-08-10T23:41:30.100Z,101041.11
2022-08-10T23:45:53.892Z,101045.83
2022-08-10T23:50:03.912Z,101042.27
2022-08-10T23:54:16.798Z,101040.66
2022-08-10T23:58:32.792Z,101042.90
